sensor_id;sensor_type;location;lat;lon;timestamp;P1;durP1;ratioP1;P2;durP2;ratioP2
54923;SDS011;40825;52.270;20.984;2022-12-18T00:01:04;28.60;;;12.20;;
54923;SDS011;40825;52.270;20.984;2022-12-18T00:03:42;22.20;;;8.50;;
54923;SDS011;40825;52.270;20.984;2022-12-18T00:06:08;21.80;;;8.80;;
54923;SDS011;40825;52.270;20.984;2022-12-18T00:08:34;21.60;;;8.80;;
54923;SDS011;40825;52.270;20.984;2022-12-18T00:11:03;23.70;;;10.60;;
54923;SDS011;40825;52.270;20.984;2022-12-18T00:13:30;17.90;;;6.90;;
54923;SDS011;40825;52.270;20.984;2022-12-18T00:15:55;18.60;;;8.40;;
54923;SDS011;40825;52.270;20.984;2022-12-18T00:18:28;25.20;;;10.90;;
54923;SDS011;40825;52.270;20.984;2022-12-18T00:20:54;23.60;;;8.50;;
54923;SDS011;40825;52.270;20.984;2022-12-18T00:23:23;22.50;;;8.40;;
54923;SDS011;40825;52.270;20.984;2022-12-18T00:25:48;20.10;;;9.50;;
54923;SDS011;40825;52.270;20.984;2022-12-18T00:28:14;21.80;;;9.20;;
54923;SDS011;40825;52.270;20.984;2022-12-18T00:30:39;18.60;;;8.20;;
54923;SDS011;40825;52.270;20.984;2022-12-18T00:33:05;22.30;;;8.70;;
54923;SDS011;40825;52.270;20.984;2022-12-18T00:35:31;24.20;;;9.60;;
54923;SDS011;40825;52.270;20.984;2022-12-18T00:37:56;21.40;;;8.20;;
54923;SDS011;40825;52.270;20.984;2022-12-18T00:40:22;21.20;;;9.20;;
54923;SDS011;40825;52.270;20.984;2022-12-18T00:42:47;24.40;;;9.10;;
54923;SDS011;40825;52.270;20.984;2022-12-18T00:45:23;20.70;;;7.60;;
54923;SDS011;40825;52.270;20.984;2022-12-18T00:47:48;21.00;;;9.00;;
54923;SDS011;40825;52.270;20.984;2022-12-18T00:50:13;20.10;;;8.00;;
54923;SDS011;40825;52.270;20.984;2022-12-18T00:52:39;22.30;;;7.80;;
54923;SDS011;40825;52.270;20.984;2022-12-18T00:55:04;18.70;;;8.20;;
54923;SDS011;40825;52.270;20.984;2022-12-18T00:57:30;21.20;;;9.50;;
54923;SDS011;40825;52.270;20.984;2022-12-18T00:59:55;24.00;;;8.90;;
54923;SDS011;40825;52.270;20.984;2022-12-18T01:02:21;17.80;;;8.80;;
54923;SDS011;40825;52.270;20.984;2022-12-18T01:04:46;18.50;;;7.10;;
54923;SDS011;40825;52.270;20.984;2022-12-18T01:07:12;21.50;;;8.40;;
54923;SDS011;40825;52.270;20.984;2022-12-18T01:09:37;23.70;;;9.70;;
54923;SDS011;40825;52.270;20.984;2022-12-18T01:12:03;18.00;;;8.20;;
54923;SDS011;40825;52.270;20.984;2022-12-18T01:14:28;20.50;;;8.90;;
54923;SDS011;40825;52.270;20.984;2022-12-18T01:16:54;18.80;;;8.40;;
54923;SDS011;40825;52.270;20.984;2022-12-18T01:19:19;20.80;;;8.90;;
54923;SDS011;40825;52.270;20.984;2022-12-18T01:21:45;19.40;;;7.10;;
54923;SDS011;40825;52.270;20.984;2022-12-18T01:24:11;15.40;;;6.60;;
54923;SDS011;40825;52.270;20.984;2022-12-18T01:26:37;19.50;;;8.00;;
54923;SDS011;40825;52.270;20.984;2022-12-18T01:29:02;20.50;;;8.30;;
54923;SDS011;40825;52.270;20.984;2022-12-18T01:31:30;20.40;;;8.60;;
54923;SDS011;40825;52.270;20.984;2022-12-18T01:33:57;22.90;;;7.60;;
54923;SDS011;40825;52.270;20.984;2022-12-18T01:36:29;20.10;;;8.60;;
54923;SDS011;40825;52.270;20.984;2022-12-18T01:39:00;20.30;;;8.00;;
54923;SDS011;40825;52.270;20.984;2022-12-18T01:41:29;20.10;;;8.30;;
54923;SDS011;40825;52.270;20.984;2022-12-18T01:47:32;17.10;;;6.90;;
54923;SDS011;40825;52.270;20.984;2022-12-18T01:50:03;21.30;;;8.40;;
54923;SDS011;40825;52.270;20.984;2022-12-18T01:52:34;17.60;;;6.30;;
54923;SDS011;40825;52.270;20.984;2022-12-18T01:55:02;25.40;;;8.20;;
54923;SDS011;40825;52.270;20.984;2022-12-18T01:57:29;19.30;;;7.60;;
54923;SDS011;40825;52.270;20.984;2022-12-18T01:59:59;21.50;;;8.10;;
54923;SDS011;40825;52.270;20.984;2022-12-18T02:02:35;21.20;;;9.70;;
54923;SDS011;40825;52.270;20.984;2022-12-18T02:05:00;15.80;;;6.50;;
54923;SDS011;40825;52.270;20.984;2022-12-18T02:07:31;20.40;;;9.10;;
54923;SDS011;40825;52.270;20.984;2022-12-18T02:10:15;19.50;;;8.30;;
54923;SDS011;40825;52.270;20.984;2022-12-18T02:15:39;17.70;;;6.70;;
54923;SDS011;40825;52.270;20.984;2022-12-18T02:18:15;14.40;;;5.70;;
54923;SDS011;40825;52.270;20.984;2022-12-18T02:20:48;16.20;;;6.50;;
54923;SDS011;40825;52.270;20.984;2022-12-18T02:26:30;19.70;;;7.00;;
54923;SDS011;40825;52.270;20.984;2022-12-18T02:29:08;17.70;;;6.10;;
54923;SDS011;40825;52.270;20.984;2022-12-18T02:31:49;22.20;;;6.70;;
54923;SDS011;40825;52.270;20.984;2022-12-18T02:34:18;17.90;;;8.80;;
54923;SDS011;40825;52.270;20.984;2022-12-18T02:36:46;16.50;;;6.40;;
54923;SDS011;40825;52.270;20.984;2022-12-18T02:39:14;18.70;;;5.80;;
54923;SDS011;40825;52.270;20.984;2022-12-18T02:41:41;19.80;;;6.90;;
54923;SDS011;40825;52.270;20.984;2022-12-18T02:44:08;15.80;;;6.20;;
54923;SDS011;40825;52.270;20.984;2022-12-18T02:46:37;17.00;;;6.40;;
54923;SDS011;40825;52.270;20.984;2022-12-18T02:55:36;17.90;;;6.60;;
54923;SDS011;40825;52.270;20.984;2022-12-18T02:57:54;20.60;;;6.90;;
54923;SDS011;40825;52.270;20.984;2022-12-18T03:02:57;17.40;;;6.70;;
54923;SDS011;40825;52.270;20.984;2022-12-18T03:05:40;22.10;;;7.50;;
54923;SDS011;40825;52.270;20.984;2022-12-18T03:08:08;20.30;;;6.70;;
54923;SDS011;40825;52.270;20.984;2022-12-18T03:10:41;19.80;;;8.10;;
54923;SDS011;40825;52.270;20.984;2022-12-18T03:13:13;19.10;;;7.30;;
54923;SDS011;40825;52.270;20.984;2022-12-18T03:15:46;17.50;;;6.30;;
54923;SDS011;40825;52.270;20.984;2022-12-18T03:18:31;21.40;;;7.50;;
54923;SDS011;40825;52.270;20.984;2022-12-18T03:21:03;15.10;;;6.50;;
54923;SDS011;40825;52.270;20.984;2022-12-18T03:23:36;16.50;;;6.10;;
54923;SDS011;40825;52.270;20.984;2022-12-18T03:26:07;17.50;;;6.50;;
54923;SDS011;40825;52.270;20.984;2022-12-18T03:28:39;19.40;;;7.40;;
54923;SDS011;40825;52.270;20.984;2022-12-18T03:31:09;18.80;;;6.30;;
54923;SDS011;40825;52.270;20.984;2022-12-18T03:33:39;11.90;;;4.80;;
54923;SDS011;40825;52.270;20.984;2022-12-18T03:36:11;18.60;;;6.20;;
54923;SDS011;40825;52.270;20.984;2022-12-18T03:38:37;19.30;;;7.70;;
54923;SDS011;40825;52.270;20.984;2022-12-18T03:49:53;11.60;;;4.90;;
54923;SDS011;40825;52.270;20.984;2022-12-18T03:54:47;15.60;;;6.10;;
54923;SDS011;40825;52.270;20.984;2022-12-18T03:57:16;17.10;;;6.00;;
54923;SDS011;40825;52.270;20.984;2022-12-18T03:59:45;17.40;;;6.10;;
54923;SDS011;40825;52.270;20.984;2022-12-18T04:02:14;13.80;;;5.50;;
54923;SDS011;40825;52.270;20.984;2022-12-18T04:04:42;16.30;;;6.50;;
54923;SDS011;40825;52.270;20.984;2022-12-18T04:07:09;18.60;;;6.90;;
54923;SDS011;40825;52.270;20.984;2022-12-18T04:09:36;15.50;;;5.40;;
54923;SDS011;40825;52.270;20.984;2022-12-18T04:12:04;21.40;;;6.90;;
54923;SDS011;40825;52.270;20.984;2022-12-18T04:14:30;15.40;;;5.10;;
54923;SDS011;40825;52.270;20.984;2022-12-18T04:17:01;19.60;;;6.20;;
54923;SDS011;40825;52.270;20.984;2022-12-18T04:19:27;18.30;;;5.70;;
54923;SDS011;40825;52.270;20.984;2022-12-18T04:21:53;17.80;;;6.90;;
54923;SDS011;40825;52.270;20.984;2022-12-18T04:24:19;16.70;;;5.50;;
54923;SDS011;40825;52.270;20.984;2022-12-18T04:26:44;19.40;;;6.80;;
54923;SDS011;40825;52.270;20.984;2022-12-18T04:29:10;18.60;;;6.70;;
54923;SDS011;40825;52.270;20.984;2022-12-18T04:31:35;12.60;;;4.40;;
54923;SDS011;40825;52.270;20.984;2022-12-18T04:34:01;16.10;;;5.60;;
54923;SDS011;40825;52.270;20.984;2022-12-18T04:36:26;13.90;;;5.70;;
54923;SDS011;40825;52.270;20.984;2022-12-18T04:38:52;16.90;;;6.50;;
54923;SDS011;40825;52.270;20.984;2022-12-18T04:41:18;16.70;;;6.10;;
54923;SDS011;40825;52.270;20.984;2022-12-18T04:43:43;14.90;;;5.20;;
54923;SDS011;40825;52.270;20.984;2022-12-18T04:46:09;13.60;;;5.40;;
54923;SDS011;40825;52.270;20.984;2022-12-18T04:48:35;15.60;;;5.20;;
54923;SDS011;40825;52.270;20.984;2022-12-18T04:51:02;17.20;;;6.80;;
54923;SDS011;40825;52.270;20.984;2022-12-18T04:53:29;15.60;;;5.30;;
54923;SDS011;40825;52.270;20.984;2022-12-18T04:56:02;17.50;;;6.60;;
54923;SDS011;40825;52.270;20.984;2022-12-18T04:58:29;15.70;;;5.30;;
54923;SDS011;40825;52.270;20.984;2022-12-18T05:00:54;14.90;;;5.50;;
54923;SDS011;40825;52.270;20.984;2022-12-18T05:03:20;16.30;;;6.00;;
54923;SDS011;40825;52.270;20.984;2022-12-18T05:05:48;22.30;;;8.30;;
54923;SDS011;40825;52.270;20.984;2022-12-18T05:08:15;16.70;;;6.30;;
54923;SDS011;40825;52.270;20.984;2022-12-18T05:10:40;18.90;;;6.50;;
54923;SDS011;40825;52.270;20.984;2022-12-18T05:13:05;17.20;;;6.20;;
54923;SDS011;40825;52.270;20.984;2022-12-18T05:15:31;18.10;;;6.10;;
54923;SDS011;40825;52.270;20.984;2022-12-18T05:17:58;18.70;;;5.70;;
54923;SDS011;40825;52.270;20.984;2022-12-18T05:20:24;19.30;;;8.10;;
54923;SDS011;40825;52.270;20.984;2022-12-18T05:22:51;18.40;;;7.10;;
54923;SDS011;40825;52.270;20.984;2022-12-18T05:25:17;22.60;;;7.40;;
54923;SDS011;40825;52.270;20.984;2022-12-18T05:27:43;19.90;;;7.40;;
54923;SDS011;40825;52.270;20.984;2022-12-18T05:30:10;19.90;;;6.70;;
54923;SDS011;40825;52.270;20.984;2022-12-18T05:32:36;18.40;;;5.60;;
54923;SDS011;40825;52.270;20.984;2022-12-18T05:35:02;13.50;;;5.30;;
54923;SDS011;40825;52.270;20.984;2022-12-18T05:37:28;19.60;;;7.50;;
54923;SDS011;40825;52.270;20.984;2022-12-18T05:39:54;16.80;;;6.10;;
54923;SDS011;40825;52.270;20.984;2022-12-18T05:42:19;15.20;;;5.50;;
54923;SDS011;40825;52.270;20.984;2022-12-18T05:44:45;15.10;;;5.40;;
54923;SDS011;40825;52.270;20.984;2022-12-18T05:47:10;12.10;;;5.40;;
54923;SDS011;40825;52.270;20.984;2022-12-18T05:49:36;20.80;;;7.60;;
54923;SDS011;40825;52.270;20.984;2022-12-18T05:52:01;17.80;;;7.20;;
54923;SDS011;40825;52.270;20.984;2022-12-18T05:54:27;17.20;;;6.30;;
54923;SDS011;40825;52.270;20.984;2022-12-18T05:56:53;19.70;;;7.70;;
54923;SDS011;40825;52.270;20.984;2022-12-18T05:59:19;18.60;;;6.80;;
54923;SDS011;40825;52.270;20.984;2022-12-18T06:01:45;24.60;;;8.10;;
54923;SDS011;40825;52.270;20.984;2022-12-18T06:04:10;23.60;;;7.50;;
54923;SDS011;40825;52.270;20.984;2022-12-18T06:06:36;19.30;;;6.20;;
54923;SDS011;40825;52.270;20.984;2022-12-18T06:09:02;24.00;;;8.10;;
54923;SDS011;40825;52.270;20.984;2022-12-18T06:11:33;25.20;;;7.80;;
54923;SDS011;40825;52.270;20.984;2022-12-18T06:14:03;25.30;;;9.10;;
54923;SDS011;40825;52.270;20.984;2022-12-18T06:16:29;23.60;;;8.60;;
54923;SDS011;40825;52.270;20.984;2022-12-18T06:18:56;26.90;;;8.50;;
54923;SDS011;40825;52.270;20.984;2022-12-18T06:21:23;26.40;;;9.00;;
54923;SDS011;40825;52.270;20.984;2022-12-18T06:23:48;33.70;;;9.80;;
54923;SDS011;40825;52.270;20.984;2022-12-18T06:26:14;27.00;;;8.00;;
54923;SDS011;40825;52.270;20.984;2022-12-18T06:28:41;31.20;;;9.40;;
54923;SDS011;40825;52.270;20.984;2022-12-18T06:31:08;28.60;;;8.20;;
54923;SDS011;40825;52.270;20.984;2022-12-18T06:33:35;32.90;;;9.10;;
54923;SDS011;40825;52.270;20.984;2022-12-18T06:36:02;32.30;;;9.40;;
54923;SDS011;40825;52.270;20.984;2022-12-18T06:38:29;32.80;;;8.90;;
54923;SDS011;40825;52.270;20.984;2022-12-18T06:40:54;27.50;;;9.10;;
54923;SDS011;40825;52.270;20.984;2022-12-18T06:43:20;36.40;;;10.30;;
54923;SDS011;40825;52.270;20.984;2022-12-18T06:45:45;34.50;;;10.60;;
54923;SDS011;40825;52.270;20.984;2022-12-18T06:48:14;35.00;;;9.80;;
54923;SDS011;40825;52.270;20.984;2022-12-18T06:50:41;36.80;;;11.90;;
54923;SDS011;40825;52.270;20.984;2022-12-18T06:53:08;30.10;;;10.30;;
54923;SDS011;40825;52.270;20.984;2022-12-18T06:55:33;32.40;;;11.80;;
54923;SDS011;40825;52.270;20.984;2022-12-18T06:57:58;34.30;;;10.40;;
54923;SDS011;40825;52.270;20.984;2022-12-18T07:00:24;35.30;;;10.70;;
54923;SDS011;40825;52.270;20.984;2022-12-18T07:02:49;36.80;;;11.20;;
54923;SDS011;40825;52.270;20.984;2022-12-18T07:05:15;30.40;;;9.70;;
54923;SDS011;40825;52.270;20.984;2022-12-18T07:07:40;23.90;;;6.90;;
54923;SDS011;40825;52.270;20.984;2022-12-18T07:10:06;26.30;;;9.90;;
54923;SDS011;40825;52.270;20.984;2022-12-18T07:12:31;25.60;;;9.40;;
54923;SDS011;40825;52.270;20.984;2022-12-18T07:14:57;33.00;;;12.30;;
54923;SDS011;40825;52.270;20.984;2022-12-18T07:17:22;33.50;;;11.00;;
54923;SDS011;40825;52.270;20.984;2022-12-18T07:19:47;36.40;;;11.00;;
54923;SDS011;40825;52.270;20.984;2022-12-18T07:22:13;29.30;;;9.20;;
54923;SDS011;40825;52.270;20.984;2022-12-18T07:24:38;22.70;;;8.40;;
54923;SDS011;40825;52.270;20.984;2022-12-18T07:27:04;33.20;;;10.20;;
54923;SDS011;40825;52.270;20.984;2022-12-18T07:29:29;21.30;;;9.30;;
54923;SDS011;40825;52.270;20.984;2022-12-18T07:31:55;26.30;;;9.20;;
54923;SDS011;40825;52.270;20.984;2022-12-18T07:34:20;20.50;;;8.20;;
54923;SDS011;40825;52.270;20.984;2022-12-18T07:36:46;25.60;;;8.70;;
54923;SDS011;40825;52.270;20.984;2022-12-18T07:39:11;24.40;;;8.00;;
54923;SDS011;40825;52.270;20.984;2022-12-18T07:41:37;31.20;;;10.50;;
54923;SDS011;40825;52.270;20.984;2022-12-18T07:44:02;27.10;;;9.50;;
54923;SDS011;40825;52.270;20.984;2022-12-18T07:46:28;31.60;;;9.20;;
54923;SDS011;40825;52.270;20.984;2022-12-18T07:48:53;32.40;;;9.70;;
54923;SDS011;40825;52.270;20.984;2022-12-18T07:51:19;37.20;;;10.40;;
54923;SDS011;40825;52.270;20.984;2022-12-18T07:53:44;37.80;;;12.30;;
54923;SDS011;40825;52.270;20.984;2022-12-18T07:56:11;34.80;;;11.30;;
54923;SDS011;40825;52.270;20.984;2022-12-18T07:58:38;43.40;;;13.10;;
54923;SDS011;40825;52.270;20.984;2022-12-18T08:01:08;43.10;;;12.10;;
54923;SDS011;40825;52.270;20.984;2022-12-18T08:03:35;40.30;;;12.20;;
54923;SDS011;40825;52.270;20.984;2022-12-18T08:06:02;45.00;;;12.50;;
54923;SDS011;40825;52.270;20.984;2022-12-18T08:08:29;41.30;;;12.50;;
54923;SDS011;40825;52.270;20.984;2022-12-18T08:10:56;37.10;;;11.00;;
54923;SDS011;40825;52.270;20.984;2022-12-18T08:13:22;37.40;;;11.20;;
54923;SDS011;40825;52.270;20.984;2022-12-18T08:16:01;31.30;;;11.00;;
54923;SDS011;40825;52.270;20.984;2022-12-18T08:18:29;23.50;;;9.40;;
54923;SDS011;40825;52.270;20.984;2022-12-18T08:20:55;36.10;;;12.30;;
54923;SDS011;40825;52.270;20.984;2022-12-18T08:23:21;27.10;;;11.40;;
54923;SDS011;40825;52.270;20.984;2022-12-18T08:25:46;27.80;;;10.40;;
54923;SDS011;40825;52.270;20.984;2022-12-18T08:28:12;28.40;;;11.50;;
54923;SDS011;40825;52.270;20.984;2022-12-18T08:30:37;30.90;;;9.80;;
54923;SDS011;40825;52.270;20.984;2022-12-18T08:33:03;28.00;;;8.90;;
54923;SDS011;40825;52.270;20.984;2022-12-18T08:35:28;28.10;;;10.90;;
54923;SDS011;40825;52.270;20.984;2022-12-18T08:37:54;28.10;;;9.90;;
54923;SDS011;40825;52.270;20.984;2022-12-18T08:40:19;25.20;;;9.40;;
54923;SDS011;40825;52.270;20.984;2022-12-18T08:42:45;29.40;;;9.90;;
54923;SDS011;40825;52.270;20.984;2022-12-18T08:45:29;31.00;;;9.70;;
54923;SDS011;40825;52.270;20.984;2022-12-18T08:47:54;36.60;;;11.60;;
54923;SDS011;40825;52.270;20.984;2022-12-18T08:50:20;34.90;;;11.80;;
54923;SDS011;40825;52.270;20.984;2022-12-18T08:52:45;32.40;;;12.40;;
54923;SDS011;40825;52.270;20.984;2022-12-18T08:55:11;25.20;;;8.30;;
54923;SDS011;40825;52.270;20.984;2022-12-18T08:57:36;30.50;;;11.50;;
54923;SDS011;40825;52.270;20.984;2022-12-18T09:00:03;28.70;;;10.30;;
54923;SDS011;40825;52.270;20.984;2022-12-18T09:02:29;32.00;;;12.60;;
54923;SDS011;40825;52.270;20.984;2022-12-18T09:04:54;28.80;;;10.70;;
54923;SDS011;40825;52.270;20.984;2022-12-18T09:07:19;25.30;;;9.10;;
54923;SDS011;40825;52.270;20.984;2022-12-18T09:09:45;27.80;;;9.70;;
54923;SDS011;40825;52.270;20.984;2022-12-18T09:12:10;24.30;;;8.80;;
54923;SDS011;40825;52.270;20.984;2022-12-18T09:14:36;25.30;;;8.40;;
54923;SDS011;40825;52.270;20.984;2022-12-18T09:17:01;32.80;;;11.40;;
54923;SDS011;40825;52.270;20.984;2022-12-18T09:19:27;33.10;;;10.80;;
54923;SDS011;40825;52.270;20.984;2022-12-18T09:21:52;23.20;;;8.00;;
54923;SDS011;40825;52.270;20.984;2022-12-18T09:24:18;29.70;;;10.30;;
54923;SDS011;40825;52.270;20.984;2022-12-18T09:26:43;33.10;;;10.70;;
54923;SDS011;40825;52.270;20.984;2022-12-18T09:29:09;31.40;;;9.80;;
54923;SDS011;40825;52.270;20.984;2022-12-18T09:31:35;27.10;;;9.60;;
54923;SDS011;40825;52.270;20.984;2022-12-18T09:34:01;27.20;;;9.70;;
54923;SDS011;40825;52.270;20.984;2022-12-18T09:36:27;26.40;;;10.00;;
54923;SDS011;40825;52.270;20.984;2022-12-18T09:38:53;18.60;;;7.10;;
54923;SDS011;40825;52.270;20.984;2022-12-18T09:44:10;26.60;;;10.40;;
54923;SDS011;40825;52.270;20.984;2022-12-18T09:46:44;26.80;;;9.20;;
54923;SDS011;40825;52.270;20.984;2022-12-18T09:49:16;29.00;;;9.80;;
54923;SDS011;40825;52.270;20.984;2022-12-18T09:52:08;30.20;;;9.90;;
54923;SDS011;40825;52.270;20.984;2022-12-18T09:54:36;28.20;;;10.70;;
54923;SDS011;40825;52.270;20.984;2022-12-18T09:57:04;26.80;;;10.70;;
54923;SDS011;40825;52.270;20.984;2022-12-18T09:59:32;23.50;;;9.90;;
54923;SDS011;40825;52.270;20.984;2022-12-18T10:02:17;25.50;;;10.70;;
54923;SDS011;40825;52.270;20.984;2022-12-18T10:04:49;23.20;;;9.10;;
54923;SDS011;40825;52.270;20.984;2022-12-18T10:10:21;30.30;;;10.80;;
54923;SDS011;40825;52.270;20.984;2022-12-18T10:21:16;31.10;;;11.00;;
54923;SDS011;40825;52.270;20.984;2022-12-18T10:26:40;38.10;;;14.80;;
54923;SDS011;40825;52.270;20.984;2022-12-18T10:29:16;35.00;;;15.40;;
54923;SDS011;40825;52.270;20.984;2022-12-18T10:31:41;24.50;;;10.70;;
54923;SDS011;40825;52.270;20.984;2022-12-18T10:34:11;29.80;;;13.10;;
54923;SDS011;40825;52.270;20.984;2022-12-18T10:36:37;25.00;;;11.10;;
54923;SDS011;40825;52.270;20.984;2022-12-18T10:39:17;27.70;;;10.10;;
54923;SDS011;40825;52.270;20.984;2022-12-18T10:42:03;27.40;;;11.40;;
54923;SDS011;40825;52.270;20.984;2022-12-18T10:44:38;29.30;;;12.00;;
54923;SDS011;40825;52.270;20.984;2022-12-18T10:47:04;23.20;;;10.20;;
54923;SDS011;40825;52.270;20.984;2022-12-18T10:49:32;28.40;;;11.40;;
54923;SDS011;40825;52.270;20.984;2022-12-18T10:54:56;28.20;;;10.30;;
54923;SDS011;40825;52.270;20.984;2022-12-18T10:57:34;29.70;;;12.10;;
54923;SDS011;40825;52.270;20.984;2022-12-18T11:00:24;25.30;;;9.60;;
54923;SDS011;40825;52.270;20.984;2022-12-18T11:02:55;26.60;;;11.00;;
54923;SDS011;40825;52.270;20.984;2022-12-18T11:05:32;27.80;;;12.30;;
54923;SDS011;40825;52.270;20.984;2022-12-18T11:07:59;32.90;;;12.70;;
54923;SDS011;40825;52.270;20.984;2022-12-18T11:10:38;33.30;;;13.30;;
54923;SDS011;40825;52.270;20.984;2022-12-18T11:13:18;29.50;;;12.30;;
54923;SDS011;40825;52.270;20.984;2022-12-18T11:15:47;31.30;;;11.60;;
54923;SDS011;40825;52.270;20.984;2022-12-18T11:18:22;32.10;;;14.20;;
54923;SDS011;40825;52.270;20.984;2022-12-18T11:23:31;32.60;;;12.80;;
54923;SDS011;40825;52.270;20.984;2022-12-18T11:26:01;32.50;;;14.00;;
54923;SDS011;40825;52.270;20.984;2022-12-18T11:28:35;28.10;;;12.60;;
54923;SDS011;40825;52.270;20.984;2022-12-18T11:31:26;38.40;;;13.90;;
54923;SDS011;40825;52.270;20.984;2022-12-18T11:33:57;38.90;;;13.70;;
54923;SDS011;40825;52.270;20.984;2022-12-18T11:36:38;33.00;;;13.60;;
54923;SDS011;40825;52.270;20.984;2022-12-18T11:48:18;36.10;;;14.90;;
54923;SDS011;40825;52.270;20.984;2022-12-18T11:53:03;38.20;;;14.50;;
54923;SDS011;40825;52.270;20.984;2022-12-18T11:58:23;34.80;;;13.20;;
54923;SDS011;40825;52.270;20.984;2022-12-18T12:00:55;36.10;;;13.20;;
54923;SDS011;40825;52.270;20.984;2022-12-18T12:03:44;39.70;;;14.90;;
54923;SDS011;40825;52.270;20.984;2022-12-18T12:09:00;33.10;;;12.80;;
54923;SDS011;40825;52.270;20.984;2022-12-18T12:11:39;36.10;;;13.30;;
54923;SDS011;40825;52.270;20.984;2022-12-18T12:17:02;36.70;;;15.50;;
54923;SDS011;40825;52.270;20.984;2022-12-18T12:25:05;41.00;;;14.50;;
54923;SDS011;40825;52.270;20.984;2022-12-18T12:36:00;37.70;;;13.50;;
54923;SDS011;40825;52.270;20.984;2022-12-18T12:38:34;33.10;;;12.60;;
54923;SDS011;40825;52.270;20.984;2022-12-18T12:41:12;40.30;;;14.60;;
54923;SDS011;40825;52.270;20.984;2022-12-18T12:44:01;38.10;;;14.30;;
54923;SDS011;40825;52.270;20.984;2022-12-18T12:46:32;36.70;;;13.30;;
54923;SDS011;40825;52.270;20.984;2022-12-18T12:49:05;40.70;;;14.50;;
54923;SDS011;40825;52.270;20.984;2022-12-18T12:51:38;40.00;;;15.20;;
54923;SDS011;40825;52.270;20.984;2022-12-18T12:54:11;40.50;;;15.10;;
54923;SDS011;40825;52.270;20.984;2022-12-18T12:59:36;40.90;;;14.70;;
54923;SDS011;40825;52.270;20.984;2022-12-18T13:05:03;39.70;;;15.00;;
54923;SDS011;40825;52.270;20.984;2022-12-18T13:08:03;34.60;;;12.90;;
54923;SDS011;40825;52.270;20.984;2022-12-18T13:10:38;33.10;;;12.10;;
54923;SDS011;40825;52.270;20.984;2022-12-18T13:15:47;27.30;;;11.70;;
54923;SDS011;40825;52.270;20.984;2022-12-18T13:20:43;34.20;;;12.60;;
54923;SDS011;40825;52.270;20.984;2022-12-18T13:23:31;22.90;;;8.40;;
54923;SDS011;40825;52.270;20.984;2022-12-18T13:31:10;35.80;;;13.80;;
54923;SDS011;40825;52.270;20.984;2022-12-18T13:33:37;40.20;;;14.50;;
54923;SDS011;40825;52.270;20.984;2022-12-18T13:36:23;33.80;;;14.10;;
54923;SDS011;40825;52.270;20.984;2022-12-18T13:41:54;32.40;;;12.50;;
54923;SDS011;40825;52.270;20.984;2022-12-18T13:44:55;35.70;;;13.90;;
54923;SDS011;40825;52.270;20.984;2022-12-18T13:47:30;28.10;;;10.60;;
54923;SDS011;40825;52.270;20.984;2022-12-18T13:49:58;35.20;;;11.80;;
54923;SDS011;40825;52.270;20.984;2022-12-18T13:52:26;42.20;;;13.30;;
54923;SDS011;40825;52.270;20.984;2022-12-18T13:55:01;34.40;;;11.50;;
54923;SDS011;40825;52.270;20.984;2022-12-18T13:57:31;39.20;;;12.70;;
54923;SDS011;40825;52.270;20.984;2022-12-18T13:59:57;33.20;;;12.60;;
54923;SDS011;40825;52.270;20.984;2022-12-18T14:02:25;42.20;;;15.00;;
54923;SDS011;40825;52.270;20.984;2022-12-18T14:04:52;36.40;;;15.10;;
54923;SDS011;40825;52.270;20.984;2022-12-18T14:07:19;38.20;;;12.70;;
54923;SDS011;40825;52.270;20.984;2022-12-18T14:09:52;30.90;;;11.50;;
54923;SDS011;40825;52.270;20.984;2022-12-18T14:12:25;32.20;;;12.70;;
54923;SDS011;40825;52.270;20.984;2022-12-18T14:18:14;31.00;;;11.30;;
54923;SDS011;40825;52.270;20.984;2022-12-18T14:20:47;27.70;;;9.10;;
54923;SDS011;40825;52.270;20.984;2022-12-18T14:23:27;29.00;;;10.10;;
54923;SDS011;40825;52.270;20.984;2022-12-18T14:26:19;30.40;;;8.90;;
54923;SDS011;40825;52.270;20.984;2022-12-18T14:28:57;37.10;;;12.80;;
54923;SDS011;40825;52.270;20.984;2022-12-18T14:31:26;35.40;;;12.80;;
54923;SDS011;40825;52.270;20.984;2022-12-18T14:33:54;40.50;;;12.50;;
54923;SDS011;40825;52.270;20.984;2022-12-18T14:36:21;32.30;;;13.20;;
54923;SDS011;40825;52.270;20.984;2022-12-18T14:38:49;35.00;;;12.10;;
54923;SDS011;40825;52.270;20.984;2022-12-18T14:41:17;34.70;;;13.20;;
54923;SDS011;40825;52.270;20.984;2022-12-18T14:43:44;30.40;;;11.10;;
54923;SDS011;40825;52.270;20.984;2022-12-18T14:49:44;38.80;;;12.10;;
54923;SDS011;40825;52.270;20.984;2022-12-18T14:51:48;37.20;;;12.10;;
54923;SDS011;40825;52.270;20.984;2022-12-18T14:54:17;36.10;;;11.20;;
54923;SDS011;40825;52.270;20.984;2022-12-18T14:56:46;38.40;;;11.90;;
54923;SDS011;40825;52.270;20.984;2022-12-18T14:59:17;41.70;;;14.90;;
54923;SDS011;40825;52.270;20.984;2022-12-18T15:02:34;38.60;;;13.20;;
54923;SDS011;40825;52.270;20.984;2022-12-18T15:04:43;36.00;;;16.00;;
54923;SDS011;40825;52.270;20.984;2022-12-18T15:07:13;34.30;;;11.60;;
54923;SDS011;40825;52.270;20.984;2022-12-18T15:09:42;35.90;;;11.70;;
54923;SDS011;40825;52.270;20.984;2022-12-18T15:12:26;29.20;;;11.20;;
54923;SDS011;40825;52.270;20.984;2022-12-18T15:14:58;35.50;;;11.90;;
54923;SDS011;40825;52.270;20.984;2022-12-18T15:17:24;37.90;;;12.70;;
54923;SDS011;40825;52.270;20.984;2022-12-18T15:19:51;35.00;;;12.50;;
54923;SDS011;40825;52.270;20.984;2022-12-18T15:22:29;36.30;;;13.10;;
54923;SDS011;40825;52.270;20.984;2022-12-18T15:25:00;33.50;;;13.00;;
54923;SDS011;40825;52.270;20.984;2022-12-18T15:27:28;33.60;;;11.40;;
54923;SDS011;40825;52.270;20.984;2022-12-18T15:32:38;36.40;;;12.70;;
54923;SDS011;40825;52.270;20.984;2022-12-18T15:37:33;42.00;;;15.00;;
54923;SDS011;40825;52.270;20.984;2022-12-18T15:39:58;45.00;;;17.20;;
54923;SDS011;40825;52.270;20.984;2022-12-18T15:42:23;31.30;;;13.90;;
54923;SDS011;40825;52.270;20.984;2022-12-18T15:45:11;31.70;;;11.00;;
54923;SDS011;40825;52.270;20.984;2022-12-18T15:47:37;43.60;;;15.50;;
54923;SDS011;40825;52.270;20.984;2022-12-18T15:50:03;38.90;;;14.40;;
54923;SDS011;40825;52.270;20.984;2022-12-18T15:52:29;40.70;;;14.70;;
54923;SDS011;40825;52.270;20.984;2022-12-18T15:54:55;40.60;;;15.30;;
54923;SDS011;40825;52.270;20.984;2022-12-18T15:57:50;34.00;;;11.30;;
54923;SDS011;40825;52.270;20.984;2022-12-18T16:00:15;41.80;;;14.80;;
54923;SDS011;40825;52.270;20.984;2022-12-18T16:02:41;34.40;;;14.40;;
54923;SDS011;40825;52.270;20.984;2022-12-18T16:05:13;33.00;;;12.70;;
54923;SDS011;40825;52.270;20.984;2022-12-18T16:07:40;41.20;;;13.70;;
54923;SDS011;40825;52.270;20.984;2022-12-18T16:10:06;34.80;;;12.00;;
54923;SDS011;40825;52.270;20.984;2022-12-18T16:12:31;33.20;;;12.30;;
54923;SDS011;40825;52.270;20.984;2022-12-18T16:14:57;32.60;;;12.40;;
54923;SDS011;40825;52.270;20.984;2022-12-18T16:17:22;36.40;;;13.10;;
54923;SDS011;40825;52.270;20.984;2022-12-18T16:19:48;35.70;;;12.50;;
54923;SDS011;40825;52.270;20.984;2022-12-18T16:22:26;35.90;;;12.10;;
54923;SDS011;40825;52.270;20.984;2022-12-18T16:24:54;37.20;;;13.10;;